createdAt,value
2022-09-09T00:00:58.115Z,100423.00
2022-09-09T00:03:31.864Z,100424.00
2022-09-09T00:06:12.417Z,100416.00
2022-09-09T00:08:52.225Z,100417.00
2022-09-09T00:11:33.206Z,100419.00
2022-09-09T00:14:07.528Z,100417.00
2022-09-09T00:16:42.112Z,100425.00
2022-09-09T00:19:18.921Z,100420.00
2022-09-09T00:21:59.289Z,100408.00
2022-09-09T00:24:35.004Z,100419.00
2022-09-09T00:27:15.212Z,100411.00
2022-09-09T00:29:50.398Z,100413.00
2022-09-09T00:32:22.385Z,100414.00
2022-09-09T00:34:57.607Z,100407.00
2022-09-09T00:37:32.800Z,100411.00
2022-09-09T00:40:15.659Z,100418.00
2022-09-09T00:42:48.642Z,100406.00
2022-09-09T00:45:49.571Z,100402.00
2022-09-09T00:48:19.842Z,100405.00
2022-09-09T00:50:56.480Z,100406.00
2022-09-09T00:53:43.828Z,100405.00
2022-09-09T00:56:19.800Z,100410.00
2022-09-09T00:59:04.432Z,100425.00
2022-09-09T01:01:34.757Z,100420.00
2022-09-09T01:04:07.713Z,100422.00
2022-09-09T01:06:40.495Z,100422.00
2022-09-09T01:09:19.724Z,100429.00
2022-09-09T01:12:05.917Z,100419.00
2022-09-09T01:14:46.569Z,100426.00
2022-09-09T01:17:21.323Z,100431.00
2022-09-09T01:20:05.371Z,100423.00
2022-09-09T01:22:42.424Z,100417.00
2022-09-09T01:25:33.482Z,100431.00
2022-09-09T01:28:13.754Z,100420.00
2022-09-09T01:30:45.829Z,100420.00
2022-09-09T01:33:19.988Z,100423.00
2022-09-09T01:35:56.027Z,100428.00
2022-09-09T01:38:28.089Z,100433.00
2022-09-09T01:40:59.585Z,100423.00
2022-09-09T01:43:33.156Z,100418.00
2022-09-09T01:46:05.784Z,100417.00
2022-09-09T01:48:36.612Z,100416.00
2022-09-09T01:51:07.143Z,100419.00
2022-09-09T01:53:37.341Z,100418.00
2022-09-09T01:56:22.038Z,100419.00
2022-09-09T01:59:11.842Z,100418.00
2022-09-09T02:02:01.161Z,100413.00
2022-09-09T02:04:43.303Z,100423.00
2022-09-09T02:07:28.196Z,100409.00
2022-09-09T02:10:06.992Z,100415.00
2022-09-09T02:12:37.068Z,100425.00
2022-09-09T02:15:21.613Z,100422.00
2022-09-09T02:17:54.909Z,100422.00
2022-09-09T02:20:29.689Z,100431.00
2022-09-09T02:23:02.558Z,100426.00
2022-09-09T02:25:33.787Z,100424.00
2022-09-09T02:28:04.466Z,100431.00
2022-09-09T02:30:39.291Z,100430.00
2022-09-09T02:33:11.963Z,100424.00
2022-09-09T02:35:44.033Z,100434.00
2022-09-09T02:38:17.873Z,100431.00
2022-09-09T02:40:47.984Z,100436.00
2022-09-09T02:43:19.790Z,100425.00
2022-09-09T02:46:03.590Z,100424.00
2022-09-09T02:48:41.549Z,100428.00
2022-09-09T02:51:20.435Z,100424.00
2022-09-09T02:54:03.683Z,100421.00
2022-09-09T02:56:39.891Z,100420.00
2022-09-09T02:59:11.097Z,100423.00
2022-09-09T03:01:45.201Z,100421.00
2022-09-09T03:04:15.325Z,100414.00
2022-09-09T03:06:45.583Z,100420.00
2022-09-09T03:09:15.776Z,100417.00
2022-09-09T03:11:46.026Z,100423.00
2022-09-09T03:14:16.489Z,100423.00
2022-09-09T03:16:49.544Z,100427.00
2022-09-09T03:19:21.093Z,100430.00
2022-09-09T03:21:52.070Z,100431.00
2022-09-09T03:24:22.512Z,100430.00
2022-09-09T03:26:53.092Z,100442.00
2022-09-09T03:29:23.299Z,100428.00
2022-09-09T03:31:56.017Z,100445.00
2022-09-09T03:34:26.242Z,100441.00
2022-09-09T03:36:56.681Z,100437.00
2022-09-09T03:39:26.928Z,100441.00
2022-09-09T03:41:57.107Z,100443.00
2022-09-09T03:44:27.400Z,100441.00
2022-09-09T03:47:01.383Z,100439.00
2022-09-09T03:49:32.154Z,100432.00
2022-09-09T03:52:02.281Z,100436.00
2022-09-09T03:54:32.365Z,100440.00
2022-09-09T03:57:02.436Z,100445.00
2022-09-09T03:59:32.728Z,100448.00
2022-09-09T04:02:05.906Z,100452.00
2022-09-09T04:04:36.184Z,100441.00
2022-09-09T04:07:08.027Z,100454.00
2022-09-09T04:09:38.635Z,100459.00
2022-09-09T04:12:09.307Z,100441.00
2022-09-09T04:14:39.535Z,100437.00
2022-09-09T04:17:12.300Z,100443.00
2022-09-09T04:19:43.456Z,100446.00
2022-09-09T04:22:13.741Z,100451.00
2022-09-09T04:24:48.180Z,100449.00
2022-09-09T04:27:20.080Z,100445.00
2022-09-09T04:29:50.091Z,100439.00
2022-09-09T04:32:23.652Z,100447.00
2022-09-09T04:34:53.884Z,100442.00
2022-09-09T04:37:24.175Z,100455.00
2022-09-09T04:39:54.391Z,100453.00
2022-09-09T04:42:24.811Z,100456.00
2022-09-09T04:44:55.296Z,100460.00
2022-09-09T04:47:28.089Z,100465.00
2022-09-09T04:49:58.435Z,100470.00
2022-09-09T04:52:28.724Z,100468.00
2022-09-09T04:54:58.797Z,100478.00
2022-09-09T04:57:29.877Z,100471.00
2022-09-09T05:00:00.619Z,100471.00
2022-09-09T05:02:33.402Z,100476.00
2022-09-09T05:05:03.945Z,100477.00
2022-09-09T05:07:34.212Z,100476.00
2022-09-09T05:10:05.746Z,100484.00
2022-09-09T05:12:36.083Z,100481.00
2022-09-09T05:15:07.018Z,100489.00
2022-09-09T05:17:39.703Z,100491.00
2022-09-09T05:20:15.562Z,100488.00
2022-09-09T05:22:47.421Z,100484.00
2022-09-09T05:25:17.703Z,100484.00
2022-09-09T05:27:47.937Z,100489.00
2022-09-09T05:30:20.013Z,100482.00
2022-09-09T05:32:52.679Z,100481.00
2022-09-09T05:35:22.792Z,100485.00
2022-09-09T05:37:53.050Z,100491.00
2022-09-09T05:40:23.596Z,100494.00
2022-09-09T05:42:54.718Z,100492.00
2022-09-09T05:45:25.050Z,100490.00
2022-09-09T05:48:01.248Z,100486.00
2022-09-09T05:50:31.745Z,100483.00
2022-09-09T05:53:02.425Z,100484.00
2022-09-09T05:55:32.536Z,100486.00
2022-09-09T05:58:02.701Z,100494.00
2022-09-09T06:00:33.320Z,100491.00
2022-09-09T06:03:06.272Z,100499.00
2022-09-09T06:05:36.557Z,100489.00
2022-09-09T06:08:06.769Z,100496.00
2022-09-09T06:10:37.474Z,100493.00
2022-09-09T06:13:07.517Z,100502.00
2022-09-09T06:15:38.143Z,100506.00
2022-09-09T06:18:10.834Z,100509.00
2022-09-09T06:20:41.144Z,100510.00
2022-09-09T06:23:11.580Z,100508.00
2022-09-09T06:25:41.869Z,100509.00
2022-09-09T06:28:12.016Z,100511.00
2022-09-09T06:30:42.492Z,100515.00
2022-09-09T06:33:15.477Z,100511.00
2022-09-09T06:35:46.083Z,100510.00
2022-09-09T06:38:16.149Z,100511.00
2022-09-09T06:40:46.289Z,100509.00
2022-09-09T06:43:16.487Z,100504.00
2022-09-09T06:45:46.789Z,100512.00
2022-09-09T06:48:19.446Z,100522.00
2022-09-09T06:50:50.933Z,100518.00
2022-09-09T06:53:23.230Z,100527.00
2022-09-09T06:55:53.540Z,100517.00
2022-09-09T06:58:23.620Z,100516.00
2022-09-09T07:00:54.123Z,100522.00
2022-09-09T07:03:27.003Z,100521.00
2022-09-09T07:06:00.720Z,100523.00
2022-09-09T07:08:31.749Z,100517.00
2022-09-09T07:11:12.302Z,100526.00
2022-09-09T07:13:43.275Z,100530.00
2022-09-09T07:16:15.915Z,100535.00
2022-09-09T07:18:49.173Z,100526.00
2022-09-09T07:21:19.956Z,100524.00
2022-09-09T07:23:50.031Z,100528.00
2022-09-09T07:26:23.235Z,100521.00
2022-09-09T07:28:53.900Z,100527.00
2022-09-09T07:31:29.589Z,100520.00
2022-09-09T07:34:03.507Z,100520.00
2022-09-09T07:36:35.950Z,100525.00
2022-09-09T07:39:10.049Z,100529.00
2022-09-09T07:41:42.885Z,100522.00
2022-09-09T07:44:15.964Z,100518.00
2022-09-09T07:46:46.847Z,100529.00
2022-09-09T07:49:26.216Z,100526.00
2022-09-09T07:51:58.955Z,100531.00
2022-09-09T07:54:29.171Z,100532.00
2022-09-09T07:57:00.255Z,100525.00
2022-09-09T07:59:31.518Z,100537.00
2022-09-09T08:02:01.922Z,100539.00
2022-09-09T08:04:34.771Z,100534.00
2022-09-09T08:07:07.460Z,100535.00
2022-09-09T08:09:37.719Z,100540.00
2022-09-09T08:12:10.102Z,100537.00
2022-09-09T08:14:41.235Z,100543.00
2022-09-09T08:17:11.513Z,100538.00
2022-09-09T08:19:45.672Z,100543.00
2022-09-09T08:22:15.820Z,100551.00
2022-09-09T08:24:46.129Z,100550.00
2022-09-09T08:27:16.251Z,100542.00
2022-09-09T08:29:46.408Z,100543.00
2022-09-09T08:32:17.764Z,100549.00
2022-09-09T08:34:54.568Z,100551.00
2022-09-09T08:37:25.073Z,100552.00
2022-09-09T08:39:55.399Z,100552.00
2022-09-09T08:42:45.401Z,100550.00
2022-09-09T08:45:30.049Z,100560.00
2022-09-09T08:48:19.511Z,100552.00
2022-09-09T08:50:56.160Z,100553.00
2022-09-09T08:53:41.203Z,100559.00
2022-09-09T08:56:16.836Z,100560.00
2022-09-09T08:58:53.053Z,100558.00
2022-09-09T09:01:47.548Z,100565.00
2022-09-09T09:04:53.748Z,100568.00
2022-09-09T09:07:44.071Z,100564.00
2022-09-09T09:10:41.865Z,100558.00
2022-09-09T09:13:22.709Z,100552.00
2022-09-09T09:15:59.630Z,100566.00
2022-09-09T09:18:31.329Z,100557.00
2022-09-09T09:21:11.617Z,100558.00
2022-09-09T09:23:51.850Z,100558.00
2022-09-09T09:26:23.347Z,100554.00
2022-09-09T09:28:54.846Z,100546.00
2022-09-09T09:31:27.934Z,100548.00
2022-09-09T09:33:59.952Z,100563.00
2022-09-09T09:36:42.510Z,100561.00
2022-09-09T09:42:23.877Z,100556.00
2022-09-09T09:44:54.529Z,100558.00
2022-09-09T09:47:28.102Z,100555.00
2022-09-09T09:50:00.619Z,100560.00
2022-09-09T09:52:33.118Z,100560.00
2022-09-09T09:55:09.804Z,100562.00
2022-09-09T09:57:40.879Z,100559.00
2022-09-09T10:00:20.580Z,100559.00
2022-09-09T10:02:53.681Z,100557.00
2022-09-09T10:05:27.652Z,100561.00
2022-09-09T10:08:07.824Z,100566.00
2022-09-09T10:10:57.752Z,100555.00
2022-09-09T10:13:37.527Z,100557.00
2022-09-09T10:16:23.698Z,100564.00
2022-09-09T10:19:04.543Z,100564.00
2022-09-09T10:22:06.736Z,100566.00
2022-09-09T10:25:01.325Z,100559.00
2022-09-09T10:27:47.803Z,100558.00
2022-09-09T10:30:22.213Z,100558.00
2022-09-09T10:32:56.738Z,100554.00
2022-09-09T10:35:31.448Z,100560.00
2022-09-09T10:38:18.229Z,100556.00
2022-09-09T10:41:25.352Z,100562.00
2022-09-09T10:44:35.576Z,100562.00
2022-09-09T10:47:37.090Z,100563.00
2022-09-09T10:51:00.619Z,100571.00
2022-09-09T10:53:47.543Z,100570.00
2022-09-09T10:56:21.982Z,100571.00
2022-09-09T10:58:54.300Z,100573.00
2022-09-09T11:01:35.339Z,100574.00
2022-09-09T11:04:14.457Z,100579.00
2022-09-09T11:06:50.765Z,100566.00
2022-09-09T11:09:25.884Z,100571.00
2022-09-09T11:11:58.961Z,100566.00
2022-09-09T11:14:37.701Z,100566.00
2022-09-09T11:17:17.669Z,100568.00
2022-09-09T11:19:48.789Z,100573.00
2022-09-09T11:22:30.539Z,100563.00
2022-09-09T11:25:07.837Z,100565.00
2022-09-09T11:27:52.709Z,100568.00
2022-09-09T11:30:53.728Z,100570.00
2022-09-09T11:33:42.264Z,100564.00
2022-09-09T11:36:43.318Z,100564.00
2022-09-09T11:39:55.932Z,100561.00
2022-09-09T11:42:28.541Z,100563.00
2022-09-09T11:44:59.238Z,100563.00
2022-09-09T11:47:33.027Z,100558.00
2022-09-09T11:50:32.934Z,100570.00
2022-09-09T11:53:24.879Z,100560.00
2022-09-09T11:56:07.564Z,100559.00
2022-09-09T11:58:48.241Z,100559.00
2022-09-09T12:01:42.589Z,100557.00
2022-09-09T12:04:35.812Z,100552.00
2022-09-09T12:07:28.962Z,100549.00
2022-09-09T12:10:03.493Z,100548.00
2022-09-09T12:12:40.368Z,100538.00
2022-09-09T12:15:31.813Z,100539.00
2022-09-09T12:18:03.978Z,100532.00
2022-09-09T12:20:42.446Z,100533.00
2022-09-09T12:23:31.365Z,100523.00
2022-09-09T12:26:13.754Z,100524.00
2022-09-09T12:28:59.444Z,100521.00
2022-09-09T12:31:37.381Z,100524.00
2022-09-09T12:34:15.739Z,100526.00
2022-09-09T12:36:53.223Z,100522.00
2022-09-09T12:39:35.163Z,100512.00
2022-09-09T12:42:05.489Z,100520.00
2022-09-09T12:44:36.889Z,100514.00
2022-09-09T12:47:08.716Z,100516.00
2022-09-09T12:49:42.828Z,100513.00
2022-09-09T12:52:22.936Z,100514.00
2022-09-09T12:54:55.780Z,100503.00
2022-09-09T12:57:29.328Z,100504.00
2022-09-09T13:00:13.929Z,100510.00
2022-09-09T13:02:53.678Z,100507.00
2022-09-09T13:05:27.729Z,100509.00
2022-09-09T13:08:06.249Z,100508.00
2022-09-09T13:11:02.805Z,100510.00
2022-09-09T13:13:39.097Z,100515.00
2022-09-09T13:16:20.136Z,100523.00
2022-09-09T13:18:50.689Z,100517.00
2022-09-09T13:21:21.254Z,100511.00
2022-09-09T13:23:54.727Z,100511.00
2022-09-09T13:26:31.189Z,100501.00
2022-09-09T13:29:21.681Z,100508.00
2022-09-09T13:31:53.772Z,100498.00
2022-09-09T13:34:33.566Z,100495.00
2022-09-09T13:37:06.992Z,100495.00
2022-09-09T13:39:39.771Z,100489.00
2022-09-09T13:42:31.748Z,100488.00
2022-09-09T13:45:05.422Z,100494.00
2022-09-09T13:47:40.171Z,100484.00
2022-09-09T13:50:27.536Z,100490.00
2022-09-09T13:53:00.114Z,100487.00
2022-09-09T13:55:32.371Z,100487.00
2022-09-09T13:58:07.829Z,100495.00
2022-09-09T14:00:39.101Z,100496.00
2022-09-09T14:03:09.297Z,100496.00
2022-09-09T14:05:39.773Z,100488.00
2022-09-09T14:08:11.397Z,100497.00
2022-09-09T14:10:41.764Z,100499.00
2022-09-09T14:13:14.429Z,100507.00
2022-09-09T14:15:44.684Z,100503.00
2022-09-09T14:18:17.565Z,100505.00
2022-09-09T14:20:47.659Z,100501.00
2022-09-09T14:23:17.872Z,100494.00
2022-09-09T14:25:48.266Z,100498.00
2022-09-09T14:28:39.240Z,100498.00
2022-09-09T14:31:11.844Z,100490.00
2022-09-09T14:33:42.058Z,100488.00
2022-09-09T14:36:12.956Z,100490.00
2022-09-09T14:38:43.902Z,100486.00
2022-09-09T14:41:17.888Z,100489.00
2022-09-09T14:43:51.166Z,100483.00
2022-09-09T14:46:24.332Z,100483.00
2022-09-09T14:51:44.932Z,100473.00
2022-09-09T14:54:15.947Z,100478.00
2022-09-09T14:56:46.137Z,100476.00
2022-09-09T14:59:19.027Z,100469.00
2022-09-09T15:01:49.286Z,100479.00
2022-09-09T15:04:20.787Z,100479.00
2022-09-09T15:06:53.527Z,100487.00
2022-09-09T15:09:23.969Z,100497.00
2022-09-09T15:11:54.246Z,100492.00
2022-09-09T15:14:27.194Z,100498.00
2022-09-09T15:16:57.429Z,100497.00
2022-09-09T15:19:27.767Z,100496.00
2022-09-09T15:21:58.265Z,100500.00
2022-09-09T15:24:28.443Z,100494.00
2022-09-09T15:26:58.769Z,100504.00
2022-09-09T15:29:31.917Z,100507.00
2022-09-09T15:32:02.043Z,100499.00
2022-09-09T15:34:32.220Z,100492.00
2022-09-09T15:37:02.552Z,100488.00
2022-09-09T15:39:35.701Z,100477.00
2022-09-09T15:42:09.561Z,100462.00
2022-09-09T15:44:48.061Z,100464.00
2022-09-09T15:47:18.501Z,100471.00
2022-09-09T15:49:48.643Z,100477.00
2022-09-09T15:52:18.866Z,100477.00
2022-09-09T15:54:49.011Z,100477.00
2022-09-09T15:57:19.235Z,100485.00
2022-09-09T15:59:51.974Z,100493.00
2022-09-09T16:02:22.926Z,100492.00
2022-09-09T16:04:53.529Z,100491.00
2022-09-09T16:07:23.678Z,100502.00
2022-09-09T16:09:55.144Z,100505.00
2022-09-09T16:12:25.177Z,100497.00
2022-09-09T16:14:58.044Z,100502.00
2022-09-09T16:17:28.760Z,100499.00
2022-09-09T16:19:58.931Z,100501.00
2022-09-09T16:22:29.223Z,100508.00
2022-09-09T16:24:59.615Z,100517.00
2022-09-09T16:27:29.825Z,100520.00
2022-09-09T16:30:02.480Z,100525.00
2022-09-09T16:32:32.596Z,100518.00
2022-09-09T16:35:02.609Z,100519.00
2022-09-09T16:37:35.169Z,100526.00
2022-09-09T16:40:06.448Z,100517.00
2022-09-09T16:42:39.603Z,100517.00
2022-09-09T16:45:13.967Z,100516.00
2022-09-09T16:47:44.901Z,100515.00
2022-09-09T16:50:15.024Z,100506.00
2022-09-09T16:52:45.189Z,100509.00
2022-09-09T16:55:15.846Z,100519.00
2022-09-09T16:57:45.938Z,100509.00
2022-09-09T17:00:21.741Z,100513.00
2022-09-09T17:02:51.939Z,100514.00
2022-09-09T17:05:22.428Z,100522.00
2022-09-09T17:07:52.933Z,100516.00
2022-09-09T17:10:22.994Z,100518.00
2022-09-09T17:12:53.108Z,100513.00
2022-09-09T17:15:25.927Z,100502.00
2022-09-09T17:17:56.485Z,100510.00
2022-09-09T17:20:26.819Z,100511.00
2022-09-09T17:22:57.351Z,100505.00
2022-09-09T17:25:27.520Z,100506.00
2022-09-09T17:27:59.135Z,100504.00
2022-09-09T17:30:32.610Z,100505.00
2022-09-09T17:33:02.712Z,100487.00
2022-09-09T17:35:33.039Z,100482.00
2022-09-09T17:38:03.231Z,100484.00
2022-09-09T17:40:33.345Z,100497.00
2022-09-09T17:43:03.531Z,100500.00
2022-09-09T17:45:36.296Z,100523.00
2022-09-09T17:48:08.455Z,100503.00
2022-09-09T17:50:38.581Z,100504.00
2022-09-09T17:53:08.712Z,100491.00
2022-09-09T17:55:38.819Z,100493.00
2022-09-09T17:58:09.062Z,100502.00
2022-09-09T18:00:41.827Z,100506.00
2022-09-09T18:03:12.277Z,100512.00
2022-09-09T18:05:42.497Z,100518.00
2022-09-09T18:08:13.571Z,100524.00
2022-09-09T18:10:45.100Z,100529.00
2022-09-09T18:13:15.192Z,100535.00
2022-09-09T18:15:50.005Z,100532.00
2022-09-09T18:18:20.297Z,100534.00
2022-09-09T18:21:01.804Z,100534.00
2022-09-09T18:23:32.663Z,100531.00
2022-09-09T18:26:02.867Z,100523.00
2022-09-09T18:28:33.009Z,100530.00
2022-09-09T18:31:10.420Z,100552.00
2022-09-09T18:33:43.627Z,100544.00
2022-09-09T18:36:16.277Z,100554.00
2022-09-09T18:38:47.125Z,100547.00
2022-09-09T18:41:18.836Z,100546.00
2022-09-09T18:43:49.136Z,100552.00
2022-09-09T18:46:23.079Z,100549.00
2022-09-09T18:48:56.298Z,100546.00
2022-09-09T18:51:28.825Z,100555.00
2022-09-09T18:54:01.409Z,100563.00
2022-09-09T18:56:33.038Z,100568.00
2022-09-09T18:59:06.515Z,100569.00
2022-09-09T19:01:39.645Z,100588.00
2022-09-09T19:04:11.676Z,100581.00
2022-09-09T19:06:44.348Z,100586.00
2022-09-09T19:09:15.729Z,100581.00
2022-09-09T19:11:46.572Z,100577.00
2022-09-09T19:14:20.056Z,100572.00
2022-09-09T19:16:52.757Z,100571.00
2022-09-09T19:19:26.770Z,100573.00
2022-09-09T19:21:59.597Z,100567.00
2022-09-09T19:24:33.425Z,100557.00
2022-09-09T19:27:06.943Z,100567.00
2022-09-09T19:29:39.624Z,100568.00
2022-09-09T19:35:02.765Z,100564.00
2022-09-09T19:37:33.192Z,100567.00
2022-09-09T19:40:04.890Z,100566.00
2022-09-09T19:42:35.100Z,100571.00
2022-09-09T19:45:07.008Z,100573.00
2022-09-09T19:47:39.905Z,100563.00
2022-09-09T19:50:11.399Z,100579.00
2022-09-09T19:52:41.506Z,100570.00
2022-09-09T19:55:12.845Z,100566.00
2022-09-09T19:57:42.977Z,100572.00
2022-09-09T20:00:15.465Z,100564.00
2022-09-09T20:03:15.132Z,100569.00
2022-09-09T20:05:41.093Z,100576.00
2022-09-09T20:08:11.297Z,100572.00
2022-09-09T20:10:41.485Z,100566.00
2022-09-09T20:13:12.200Z,100577.00
2022-09-09T20:15:42.515Z,100574.00
2022-09-09T20:18:15.299Z,100574.00
2022-09-09T20:20:46.332Z,100563.00
2022-09-09T20:23:18.814Z,100583.00
2022-09-09T20:25:48.964Z,100577.00
2022-09-09T20:28:20.281Z,100586.00
2022-09-09T20:30:53.313Z,100587.00
2022-09-09T20:33:26.659Z,100588.00
2022-09-09T20:35:56.813Z,100579.00
2022-09-09T20:38:27.701Z,100582.00
2022-09-09T20:40:57.932Z,100582.00
2022-09-09T20:43:28.567Z,100573.00
2022-09-09T20:46:00.900Z,100578.00
2022-09-09T20:48:36.017Z,100567.00
2022-09-09T20:51:10.526Z,100571.00
2022-09-09T20:53:42.276Z,100566.00
2022-09-09T20:56:13.356Z,100572.00
2022-09-09T20:58:43.695Z,100565.00
2022-09-09T21:01:19.178Z,100560.00
2022-09-09T21:03:53.380Z,100560.00
2022-09-09T21:06:23.569Z,100559.00
2022-09-09T21:08:53.705Z,100557.00
2022-09-09T21:11:24.216Z,100566.00
2022-09-09T21:13:54.536Z,100566.00
2022-09-09T21:16:24.703Z,100571.00
2022-09-09T21:18:58.753Z,100566.00
2022-09-09T21:21:29.623Z,100570.00
2022-09-09T21:24:02.953Z,100563.00
2022-09-09T21:26:33.165Z,100559.00
2022-09-09T21:29:03.434Z,100570.00
2022-09-09T21:31:33.989Z,100568.00
2022-09-09T21:34:07.415Z,100575.00
2022-09-09T21:36:37.642Z,100570.00
2022-09-09T21:39:08.182Z,100581.00
2022-09-09T21:41:38.461Z,100575.00
2022-09-09T21:44:09.231Z,100573.00
2022-09-09T21:46:40.668Z,100582.00
2022-09-09T21:49:13.524Z,100586.00
2022-09-09T21:51:43.732Z,100572.00
2022-09-09T21:54:13.823Z,100589.00
2022-09-09T21:56:44.095Z,100569.00
2022-09-09T21:59:14.217Z,100569.00
2022-09-09T22:01:44.483Z,100564.00
2022-09-09T22:04:17.752Z,100561.00
2022-09-09T22:06:48.256Z,100564.00
2022-09-09T22:09:18.879Z,100574.00
2022-09-09T22:11:48.949Z,100566.00
2022-09-09T22:14:18.985Z,100571.00
2022-09-09T22:16:49.110Z,100568.00
2022-09-09T22:19:21.954Z,100570.00
2022-09-09T22:21:52.052Z,100563.00
2022-09-09T22:24:22.251Z,100573.00
2022-09-09T22:26:55.683Z,100566.00
2022-09-09T22:29:26.902Z,100568.00
2022-09-09T22:31:57.041Z,100571.00
2022-09-09T22:34:31.541Z,100571.00
2022-09-09T22:37:02.264Z,100571.00
2022-09-09T22:39:33.038Z,100565.00
2022-09-09T22:42:06.376Z,100562.00
2022-09-09T22:44:37.352Z,100567.00
2022-09-09T22:47:08.004Z,100562.00
2022-09-09T22:49:40.803Z,100568.00
2022-09-09T22:52:11.308Z,100579.00
2022-09-09T22:54:45.830Z,100581.00
2022-09-09T22:57:16.203Z,100568.00
2022-09-09T22:59:46.416Z,100563.00
2022-09-09T23:02:16.548Z,100565.00
2022-09-09T23:04:49.221Z,100559.00
2022-09-09T23:07:19.982Z,100566.00
2022-09-09T23:09:50.757Z,100574.00
2022-09-09T23:12:22.400Z,100560.00
2022-09-09T23:14:54.216Z,100564.00
2022-09-09T23:17:25.079Z,100567.00
2022-09-09T23:19:58.232Z,100567.00
2022-09-09T23:22:28.847Z,100565.00
2022-09-09T23:24:58.941Z,100558.00
2022-09-09T23:27:30.048Z,100557.00
2022-09-09T23:30:00.240Z,100559.00
2022-09-09T23:32:31.192Z,100564.00
2022-09-09T23:35:05.232Z,100556.00
2022-09-09T23:37:36.983Z,100556.00
2022-09-09T23:40:08.026Z,100557.00
2022-09-09T23:42:38.163Z,100552.00
2022-09-09T23:45:10.859Z,100562.00
2022-09-09T23:47:40.873Z,100558.00
2022-09-09T23:50:14.608Z,100554.00
2022-09-09T23:52:46.428Z,100547.00
2022-09-09T23:55:16.488Z,100557.00
2022-09-09T23:57:46.596Z,100558.00
